sensor_id;sensor_type;location;lat;lon;timestamp;pressure;altitude;pressure_sealevel;temperature;humidity
39823;BME280;25499;53.958;10.970;2023-02-19T07:31:35;101580.03;;;2.37;100.00
39823;BME280;25499;53.958;10.970;2023-02-19T07:34:00;101587.81;;;2.39;100.00
39823;BME280;25499;53.958;10.970;2023-02-19T07:36:26;101585.22;;;2.58;100.00
39823;BME280;25499;53.958;10.970;2023-02-19T07:38:58;101589.94;;;2.69;100.00
39823;BME280;25499;53.958;10.970;2023-02-19T07:41:25;101596.09;;;2.72;100.00
39823;BME280;25499;53.958;10.970;2023-02-19T07:43:51;101598.97;;;2.80;100.00
39823;BME280;25499;53.958;10.970;2023-02-19T07:46:17;101605.81;;;2.79;100.00
39823;BME280;25499;53.958;10.970;2023-02-19T07:48:42;101600.53;;;2.76;100.00
39823;BME280;25499;53.958;10.970;2023-02-19T07:51:16;101611.81;;;2.80;100.00
39823;BME280;25499;53.958;10.970;2023-02-19T07:53:47;101618.25;;;2.90;100.00
39823;BME280;25499;53.958;10.970;2023-02-19T07:56:14;101622.66;;;2.92;100.00
39823;BME280;25499;53.958;10.970;2023-02-19T07:58:40;101625.16;;;2.91;100.00
39823;BME280;25499;53.958;10.970;2023-02-19T08:01:18;101620.31;;;2.98;100.00
39823;BME280;25499;53.958;10.970;2023-02-19T08:04:05;101626.03;;;2.91;100.00
39823;BME280;25499;53.958;10.970;2023-02-19T08:06:31;101626.72;;;2.87;100.00
39823;BME280;25499;53.958;10.970;2023-02-19T08:08:56;101649.19;;;2.91;100.00
39823;BME280;25499;53.958;10.970;2023-02-19T08:11:22;101650.19;;;2.95;100.00
39823;BME280;25499;53.958;10.970;2023-02-19T08:14:06;101657.25;;;3.20;100.00
39823;BME280;25499;53.958;10.970;2023-02-19T08:16:31;101666.16;;;3.28;100.00
39823;BME280;25499;53.958;10.970;2023-02-19T08:18:56;101666.91;;;3.47;100.00
39823;BME280;25499;53.958;10.970;2023-02-19T08:21:22;101665.41;;;3.52;100.00
39823;BME280;25499;53.958;10.970;2023-02-19T08:23:48;101651.97;;;3.59;100.00
39823;BME280;25499;53.958;10.970;2023-02-19T08:26:14;101665.38;;;3.73;100.00
39823;BME280;25499;53.958;10.970;2023-02-19T08:28:41;101672.03;;;3.89;100.00
39823;BME280;25499;53.958;10.970;2023-02-19T08:31:09;101663.47;;;3.90;100.00
39823;BME280;25499;53.958;10.970;2023-02-19T08:33:35;101667.34;;;4.01;100.00
39823;BME280;25499;53.958;10.970;2023-02-19T08:36:02;101668.22;;;4.02;100.00
39823;BME280;25499;53.958;10.970;2023-02-19T08:38:29;101668.78;;;4.17;100.00
39823;BME280;25499;53.958;10.970;2023-02-19T08:40:55;101666.94;;;4.13;100.00
39823;BME280;25499;53.958;10.970;2023-02-19T08:43:20;101664.16;;;4.31;100.00
39823;BME280;25499;53.958;10.970;2023-02-19T08:45:46;101667.69;;;4.33;100.00
39823;BME280;25499;53.958;10.970;2023-02-19T08:48:12;101665.78;;;4.52;100.00
39823;BME280;25499;53.958;10.970;2023-02-19T08:50:38;101673.97;;;4.64;100.00
39823;BME280;25499;53.958;10.970;2023-02-19T08:53:05;101670.59;;;4.66;100.00
39823;BME280;25499;53.958;10.970;2023-02-19T08:55:31;101681.00;;;4.94;100.00
39823;BME280;25499;53.958;10.970;2023-02-19T08:57:56;101677.63;;;4.95;100.00
39823;BME280;25499;53.958;10.970;2023-02-19T09:00:23;101681.34;;;5.03;100.00
39823;BME280;25499;53.958;10.970;2023-02-19T09:02:49;101697.31;;;5.17;100.00
39823;BME280;25499;53.958;10.970;2023-02-19T09:05:15;101685.78;;;5.33;100.00
39823;BME280;25499;53.958;10.970;2023-02-19T09:07:41;101697.06;;;5.35;99.50
39823;BME280;25499;53.958;10.970;2023-02-19T09:10:09;101700.25;;;5.53;99.02
39823;BME280;25499;53.958;10.970;2023-02-19T09:12:36;101691.38;;;5.45;98.06
39823;BME280;25499;53.958;10.970;2023-02-19T09:15:03;101694.41;;;5.59;97.61
39823;BME280;25499;53.958;10.970;2023-02-19T09:17:29;101706.41;;;5.57;97.08
39823;BME280;25499;53.958;10.970;2023-02-19T09:19:54;101700.75;;;5.69;96.06
39823;BME280;25499;53.958;10.970;2023-02-19T09:22:20;101698.84;;;5.63;95.36
39823;BME280;25499;53.958;10.970;2023-02-19T09:24:45;101698.94;;;5.93;95.23
39823;BME280;25499;53.958;10.970;2023-02-19T09:27:15;101702.03;;;6.09;94.38
39823;BME280;25499;53.958;10.970;2023-02-19T09:29:41;101705.69;;;6.15;93.54
39823;BME280;25499;53.958;10.970;2023-02-19T09:32:07;101712.88;;;6.26;93.38
39823;BME280;25499;53.958;10.970;2023-02-19T09:34:32;101723.31;;;6.58;92.62
39823;BME280;25499;53.958;10.970;2023-02-19T09:36:58;101696.19;;;6.14;90.54
39823;BME280;25499;53.958;10.970;2023-02-19T09:39:23;101727.22;;;6.45;91.16
39823;BME280;25499;53.958;10.970;2023-02-19T09:41:56;101731.13;;;6.89;90.84
39823;BME280;25499;53.958;10.970;2023-02-19T09:44:52;101711.28;;;6.90;89.26
39823;BME280;25499;53.958;10.970;2023-02-19T09:47:24;101711.78;;;7.08;89.05
39823;BME280;25499;53.958;10.970;2023-02-19T09:50:11;101730.97;;;7.50;88.88
39823;BME280;25499;53.958;10.970;2023-02-19T09:52:42;101723.38;;;7.93;88.10
39823;BME280;25499;53.958;10.970;2023-02-19T09:58:02;101726.03;;;8.34;85.23
39823;BME280;25499;53.958;10.970;2023-02-19T10:00:33;101728.31;;;8.58;83.38
39823;BME280;25499;53.958;10.970;2023-02-19T10:06:32;101707.00;;;9.20;80.51
39823;BME280;25499;53.958;10.970;2023-02-19T10:11:50;101690.53;;;9.71;77.91
39823;BME280;25499;53.958;10.970;2023-02-19T10:14:20;101688.31;;;9.99;76.28
39823;BME280;25499;53.958;10.970;2023-02-19T10:16:47;101684.16;;;11.71;73.20
39823;BME280;25499;53.958;10.970;2023-02-19T10:19:14;101648.22;;;13.50;67.26
39823;BME280;25499;53.958;10.970;2023-02-19T10:21:40;101615.06;;;15.32;60.67
39823;BME280;25499;53.958;10.970;2023-02-19T10:24:07;101578.47;;;16.03;56.62
39823;BME280;25499;53.958;10.970;2023-02-19T10:26:38;101589.81;;;16.69;54.12
39823;BME280;25499;53.958;10.970;2023-02-19T10:29:04;101548.75;;;17.18;51.09
39823;BME280;25499;53.958;10.970;2023-02-19T10:31:31;101613.75;;;18.48;49.36
39823;BME280;25499;53.958;10.970;2023-02-19T10:33:59;101572.94;;;17.82;48.05
39823;BME280;25499;53.958;10.970;2023-02-19T10:36:32;101605.59;;;16.70;50.27
39823;BME280;25499;53.958;10.970;2023-02-19T10:39:18;101614.03;;;15.50;51.62
39823;BME280;25499;53.958;10.970;2023-02-19T10:41:50;101655.63;;;14.84;53.79
39823;BME280;25499;53.958;10.970;2023-02-19T10:44:25;101669.09;;;13.90;55.18
39823;BME280;25499;53.958;10.970;2023-02-19T10:46:53;101712.69;;;13.28;57.11
39823;BME280;25499;53.958;10.970;2023-02-19T10:49:32;101735.25;;;12.87;58.87
39823;BME280;25499;53.958;10.970;2023-02-19T10:52:03;101776.09;;;12.56;60.58
39823;BME280;25499;53.958;10.970;2023-02-19T10:54:41;101760.34;;;12.42;59.79
39823;BME280;25499;53.958;10.970;2023-02-19T10:57:23;101779.44;;;12.37;60.18
39823;BME280;25499;53.958;10.970;2023-02-19T10:59:58;101770.72;;;12.35;60.55
39823;BME280;25499;53.958;10.970;2023-02-19T11:02:26;101762.81;;;12.22;60.61
39823;BME280;25499;53.958;10.970;2023-02-19T11:07:31;101798.63;;;12.42;61.90
39823;BME280;25499;53.958;10.970;2023-02-19T11:09:57;101774.31;;;12.55;60.77
39823;BME280;25499;53.958;10.970;2023-02-19T11:12:26;101765.66;;;12.59;60.29
39823;BME280;25499;53.958;10.970;2023-02-19T11:14:53;101738.66;;;12.60;59.33
39823;BME280;25499;53.958;10.970;2023-02-19T11:17:28;101754.28;;;12.53;59.60
39823;BME280;25499;53.958;10.970;2023-02-19T11:19:59;101742.16;;;12.68;58.52
39823;BME280;25499;53.958;10.970;2023-02-19T11:22:34;101742.22;;;12.81;58.97
39823;BME280;25499;53.958;10.970;2023-02-19T11:27:27;101739.72;;;13.22;58.41
39823;BME280;25499;53.958;10.970;2023-02-19T11:29:52;101743.28;;;13.45;57.91
39823;BME280;25499;53.958;10.970;2023-02-19T11:34:50;101719.63;;;14.18;55.67
39823;BME280;25499;53.958;10.970;2023-02-19T11:37:18;101723.97;;;14.41;55.14
39823;BME280;25499;53.958;10.970;2023-02-19T11:39:49;101728.34;;;14.28;54.87
39823;BME280;25499;53.958;10.970;2023-02-19T11:45:05;101750.09;;;14.66;55.85
39823;BME280;25499;53.958;10.970;2023-02-19T11:52:55;101712.44;;;14.85;53.93
39823;BME280;25499;53.958;10.970;2023-02-19T12:12:58;101608.47;;;14.78;48.81
39823;BME280;25499;53.958;10.970;2023-02-19T12:15:38;101716.41;;;15.46;50.88
39823;BME280;25499;53.958;10.970;2023-02-19T12:27:28;101643.34;;;16.63;45.81
39823;BME280;25499;53.958;10.970;2023-02-19T12:33:38;101604.00;;;17.18;44.07
39823;BME280;25499;53.958;10.970;2023-02-19T12:41:53;101598.22;;;18.36;41.00
39823;BME280;25499;53.958;10.970;2023-02-19T12:44:40;101591.50;;;18.60;39.86
39823;BME280;25499;53.958;10.970;2023-02-19T12:47:15;101626.94;;;18.07;40.83
39823;BME280;25499;53.958;10.970;2023-02-19T12:49:47;101627.88;;;18.88;40.42
39823;BME280;25499;53.958;10.970;2023-02-19T12:52:40;101634.19;;;18.79;40.50
39823;BME280;25499;53.958;10.970;2023-02-19T12:55:35;101641.41;;;19.10;39.70
39823;BME280;25499;53.958;10.970;2023-02-19T12:58:04;101642.41;;;19.40;39.94
39823;BME280;25499;53.958;10.970;2023-02-19T13:00:43;101587.63;;;19.14;38.55
39823;BME280;25499;53.958;10.970;2023-02-19T13:03:40;101602.94;;;18.99;38.53
39823;BME280;25499;53.958;10.970;2023-02-19T13:08:56;101580.50;;;18.00;39.25
39823;BME280;25499;53.958;10.970;2023-02-19T13:11:36;101617.72;;;18.68;39.31
39823;BME280;25499;53.958;10.970;2023-02-19T13:16:51;101608.78;;;18.34;39.70
39823;BME280;25499;53.958;10.970;2023-02-19T13:19:19;101559.09;;;17.74;39.93
39823;BME280;25499;53.958;10.970;2023-02-19T13:21:53;101538.88;;;16.76;40.22
39823;BME280;25499;53.958;10.970;2023-02-19T13:24:40;101601.88;;;16.20;42.55
39823;BME280;25499;53.958;10.970;2023-02-19T13:27:50;101597.09;;;14.82;44.89
39823;BME280;25499;53.958;10.970;2023-02-19T13:36:34;101672.25;;;12.10;51.38
39823;BME280;25499;53.958;10.970;2023-02-19T13:39:03;101660.69;;;11.74;52.05
39823;BME280;25499;53.958;10.970;2023-02-19T13:41:38;101675.47;;;11.75;52.40
39823;BME280;25499;53.958;10.970;2023-02-19T13:44:07;101640.44;;;11.39;52.22
39823;BME280;25499;53.958;10.970;2023-02-19T13:46:44;101642.47;;;10.76;52.92
39823;BME280;25499;53.958;10.970;2023-02-19T13:54:48;101701.09;;;9.84;56.66
39823;BME280;25499;53.958;10.970;2023-02-19T13:59:43;101712.06;;;9.14;58.22
39823;BME280;25499;53.958;10.970;2023-02-19T14:07:27;101805.97;;;9.32;61.76
39823;BME280;25499;53.958;10.970;2023-02-19T14:10:04;101777.81;;;9.10;60.41
39823;BME280;25499;53.958;10.970;2023-02-19T14:12:34;101758.97;;;8.76;60.48
39823;BME280;25499;53.958;10.970;2023-02-19T14:18:00;101804.81;;;8.75;61.59
39823;BME280;25499;53.958;10.970;2023-02-19T14:20:41;101823.53;;;9.00;61.75
39823;BME280;25499;53.958;10.970;2023-02-19T14:23:21;101813.63;;;8.84;61.48
39823;BME280;25499;53.958;10.970;2023-02-19T14:25:50;101827.06;;;9.04;61.27
39823;BME280;25499;53.958;10.970;2023-02-19T14:33:34;101761.38;;;9.11;59.64
39823;BME280;25499;53.958;10.970;2023-02-19T14:36:22;101760.63;;;8.74;60.20
39823;BME280;25499;53.958;10.970;2023-02-19T14:41:41;101762.78;;;8.93;60.65
39823;BME280;25499;53.958;10.970;2023-02-19T14:44:21;101747.31;;;9.01;60.23
39823;BME280;25499;53.958;10.970;2023-02-19T14:46:53;101689.13;;;8.90;57.69
39823;BME280;25499;53.958;10.970;2023-02-19T14:49:28;101682.50;;;8.62;57.68
39823;BME280;25499;53.958;10.970;2023-02-19T14:52:00;101714.53;;;8.62;58.58
39823;BME280;25499;53.958;10.970;2023-02-19T14:54:38;101725.56;;;8.50;59.82
39823;BME280;25499;53.958;10.970;2023-02-19T14:57:21;101752.50;;;8.55;60.50
39823;BME280;25499;53.958;10.970;2023-02-19T15:00:02;101728.75;;;8.40;60.20
39823;BME280;25499;53.958;10.970;2023-02-19T15:02:30;101726.19;;;8.41;60.35
39823;BME280;25499;53.958;10.970;2023-02-19T15:04:56;101740.34;;;8.54;60.52
39823;BME280;25499;53.958;10.970;2023-02-19T15:07:25;101740.31;;;8.53;60.35
39823;BME280;25499;53.958;10.970;2023-02-19T15:09:56;101721.06;;;8.43;60.08
39823;BME280;25499;53.958;10.970;2023-02-19T15:12:29;101682.75;;;8.33;58.35
39823;BME280;25499;53.958;10.970;2023-02-19T15:15:02;101705.91;;;8.24;59.41
39823;BME280;25499;53.958;10.970;2023-02-19T15:17:30;101710.53;;;7.99;59.82
39823;BME280;25499;53.958;10.970;2023-02-19T15:19:59;101735.22;;;8.19;60.13
39823;BME280;25499;53.958;10.970;2023-02-19T15:22:27;101732.72;;;8.24;60.56
39823;BME280;25499;53.958;10.970;2023-02-19T15:24:58;101743.69;;;8.12;60.99
39823;BME280;25499;53.958;10.970;2023-02-19T15:27:24;101720.88;;;7.97;60.25
39823;BME280;25499;53.958;10.970;2023-02-19T15:29:51;101746.75;;;7.96;61.09
39823;BME280;25499;53.958;10.970;2023-02-19T15:32:20;101760.31;;;7.84;62.35
39823;BME280;25499;53.958;10.970;2023-02-19T15:34:59;101755.13;;;7.84;62.14
39823;BME280;25499;53.958;10.970;2023-02-19T15:37:27;101753.06;;;7.69;62.23
39823;BME280;25499;53.958;10.970;2023-02-19T15:39:53;101767.38;;;7.55;62.31
39823;BME280;25499;53.958;10.970;2023-02-19T15:42:23;101779.28;;;7.48;63.23
39823;BME280;25499;53.958;10.970;2023-02-19T15:50:12;101793.56;;;7.32;64.27
39823;BME280;25499;53.958;10.970;2023-02-19T15:52:47;101804.50;;;7.22;64.59
39823;BME280;25499;53.958;10.970;2023-02-19T16:00:47;101810.84;;;7.01;66.06
39823;BME280;25499;53.958;10.970;2023-02-19T16:03:33;101808.09;;;6.97;66.24
39823;BME280;25499;53.958;10.970;2023-02-19T16:06:10;101797.22;;;6.78;65.99
39823;BME280;25499;53.958;10.970;2023-02-19T16:08:41;101805.50;;;6.66;66.56
39823;BME280;25499;53.958;10.970;2023-02-19T16:13:47;101814.91;;;6.64;67.28
39823;BME280;25499;53.958;10.970;2023-02-19T16:16:20;101804.31;;;6.57;67.38
39823;BME280;25499;53.958;10.970;2023-02-19T16:18:50;101814.59;;;6.53;67.28
39823;BME280;25499;53.958;10.970;2023-02-19T16:21:20;101792.53;;;6.38;67.32
39823;BME280;25499;53.958;10.970;2023-02-19T16:23:48;101813.94;;;6.32;68.07
39823;BME280;25499;53.958;10.970;2023-02-19T16:26:16;101798.22;;;6.26;67.87
39823;BME280;25499;53.958;10.970;2023-02-19T16:28:43;101806.81;;;6.25;68.29
39823;BME280;25499;53.958;10.970;2023-02-19T16:31:11;101810.81;;;6.15;68.50
39823;BME280;25499;53.958;10.970;2023-02-19T16:33:44;101820.50;;;6.22;68.68
39823;BME280;25499;53.958;10.970;2023-02-19T16:41:23;101842.38;;;6.32;69.63
39823;BME280;25499;53.958;10.970;2023-02-19T16:43:48;101836.03;;;6.22;69.74
39823;BME280;25499;53.958;10.970;2023-02-19T16:46:14;101857.56;;;6.21;70.05
39823;BME280;25499;53.958;10.970;2023-02-19T16:48:39;101857.47;;;6.18;70.58
39823;BME280;25499;53.958;10.970;2023-02-19T16:51:06;101865.78;;;6.09;70.80
39823;BME280;25499;53.958;10.970;2023-02-19T16:53:32;101874.47;;;6.11;71.53
39823;BME280;25499;53.958;10.970;2023-02-19T16:55:57;101865.22;;;5.94;71.52
39823;BME280;25499;53.958;10.970;2023-02-19T16:58:24;101866.63;;;5.84;71.93
39823;BME280;25499;53.958;10.970;2023-02-19T17:00:50;101862.31;;;5.85;72.28
39823;BME280;25499;53.958;10.970;2023-02-19T17:03:20;101863.19;;;5.85;72.50
39823;BME280;25499;53.958;10.970;2023-02-19T17:05:46;101877.53;;;5.75;72.96
39823;BME280;25499;53.958;10.970;2023-02-19T17:10:57;101874.56;;;5.65;73.39
39823;BME280;25499;53.958;10.970;2023-02-19T17:13:23;101881.16;;;5.56;73.96
39823;BME280;25499;53.958;10.970;2023-02-19T17:15:49;101888.94;;;5.58;74.27
39823;BME280;25499;53.958;10.970;2023-02-19T17:18:14;101886.69;;;5.43;74.37
39823;BME280;25499;53.958;10.970;2023-02-19T17:20:41;101895.97;;;5.38;75.10
39823;BME280;25499;53.958;10.970;2023-02-19T17:23:07;101897.19;;;5.23;75.47
39823;BME280;25499;53.958;10.970;2023-02-19T17:25:33;101898.31;;;5.08;75.74
39823;BME280;25499;53.958;10.970;2023-02-19T17:27:59;101901.28;;;5.18;75.98
39823;BME280;25499;53.958;10.970;2023-02-19T17:30:29;101910.03;;;5.22;76.47
39823;BME280;25499;53.958;10.970;2023-02-19T17:32:55;101895.75;;;5.08;76.39
39823;BME280;25499;53.958;10.970;2023-02-19T17:35:21;101899.88;;;5.04;77.08
39823;BME280;25499;53.958;10.970;2023-02-19T17:37:46;101894.25;;;4.92;77.43
39823;BME280;25499;53.958;10.970;2023-02-19T17:40:20;101903.00;;;4.95;77.49
39823;BME280;25499;53.958;10.970;2023-02-19T17:42:45;101908.47;;;4.80;77.77
39823;BME280;25499;53.958;10.970;2023-02-19T17:45:11;101906.69;;;4.79;78.12
39823;BME280;25499;53.958;10.970;2023-02-19T17:47:36;101912.25;;;4.67;78.17
39823;BME280;25499;53.958;10.970;2023-02-19T17:50:02;101918.34;;;4.70;78.41
39823;BME280;25499;53.958;10.970;2023-02-19T17:52:29;101921.09;;;4.74;78.97
39823;BME280;25499;53.958;10.970;2023-02-19T17:54:54;101912.25;;;4.67;78.76
39823;BME280;25499;53.958;10.970;2023-02-19T17:57:19;101913.44;;;4.55;79.22
39823;BME280;25499;53.958;10.970;2023-02-19T17:59:45;101913.44;;;4.55;79.44
39823;BME280;25499;53.958;10.970;2023-02-19T18:02:10;101917.97;;;4.60;79.52
39823;BME280;25499;53.958;10.970;2023-02-19T18:04:36;101913.56;;;4.58;79.63
39823;BME280;25499;53.958;10.970;2023-02-19T18:07:01;101916.78;;;4.52;79.30
39823;BME280;25499;53.958;10.970;2023-02-19T18:09:27;101924.94;;;4.63;79.72
39823;BME280;25499;53.958;10.970;2023-02-19T18:11:52;101924.75;;;4.79;79.75
39823;BME280;25499;53.958;10.970;2023-02-19T18:14:18;101920.69;;;4.63;79.83
39823;BME280;25499;53.958;10.970;2023-02-19T18:16:48;101924.88;;;4.61;80.11
39823;BME280;25499;53.958;10.970;2023-02-19T18:19:14;101922.00;;;4.54;80.61
39823;BME280;25499;53.958;10.970;2023-02-19T18:21:39;101923.88;;;4.58;80.47
39823;BME280;25499;53.958;10.970;2023-02-19T18:24:05;101937.03;;;4.64;80.90
39823;BME280;25499;53.958;10.970;2023-02-19T18:26:31;101940.19;;;4.57;81.14
39823;BME280;25499;53.958;10.970;2023-02-19T18:28:58;101933.13;;;4.53;81.50
39823;BME280;25499;53.958;10.970;2023-02-19T18:31:24;101934.44;;;4.64;81.35
39823;BME280;25499;53.958;10.970;2023-02-19T18:33:49;101930.81;;;4.59;81.62
39823;BME280;25499;53.958;10.970;2023-02-19T18:36:15;101928.81;;;4.52;81.85
39823;BME280;25499;53.958;10.970;2023-02-19T18:38:40;101934.91;;;4.54;82.50
39823;BME280;25499;53.958;10.970;2023-02-19T18:41:10;101941.56;;;4.48;83.31
39823;BME280;25499;53.958;10.970;2023-02-19T18:43:35;101942.78;;;4.57;83.34
39823;BME280;25499;53.958;10.970;2023-02-19T18:46:01;101928.91;;;4.55;83.74
39823;BME280;25499;53.958;10.970;2023-02-19T18:48:27;101934.13;;;4.56;83.88
39823;BME280;25499;53.958;10.970;2023-02-19T18:50:52;101932.19;;;4.51;84.56
39823;BME280;25499;53.958;10.970;2023-02-19T18:53:18;101928.28;;;4.39;84.87
39823;BME280;25499;53.958;10.970;2023-02-19T18:55:43;101930.78;;;4.38;85.48
39823;BME280;25499;53.958;10.970;2023-02-19T18:58:09;101926.53;;;4.38;85.48
39823;BME280;25499;53.958;10.970;2023-02-19T19:00:34;101930.84;;;4.39;85.92
39823;BME280;25499;53.958;10.970;2023-02-19T19:03:00;101925.19;;;4.48;86.27
39823;BME280;25499;53.958;10.970;2023-02-19T19:05:25;101924.53;;;4.52;86.18
39823;BME280;25499;53.958;10.970;2023-02-19T19:07:52;101931.19;;;4.47;86.58
39823;BME280;25499;53.958;10.970;2023-02-19T19:10:19;101929.53;;;4.49;87.31
39823;BME280;25499;53.958;10.970;2023-02-19T19:12:44;101907.50;;;4.35;87.72
39823;BME280;25499;53.958;10.970;2023-02-19T19:15:11;101909.44;;;4.40;88.05
39823;BME280;25499;53.958;10.970;2023-02-19T19:17:37;101899.84;;;4.38;88.34
39823;BME280;25499;53.958;10.970;2023-02-19T19:20:03;101904.78;;;4.32;88.96
39823;BME280;25499;53.958;10.970;2023-02-19T19:22:29;101905.00;;;4.38;89.27
39823;BME280;25499;53.958;10.970;2023-02-19T19:24:54;101885.03;;;4.32;89.33
39823;BME280;25499;53.958;10.970;2023-02-19T19:27:20;101893.16;;;4.41;89.84
39823;BME280;25499;53.958;10.970;2023-02-19T19:29:45;101899.00;;;4.37;89.98
39823;BME280;25499;53.958;10.970;2023-02-19T19:32:12;101888.53;;;4.34;90.15
39823;BME280;25499;53.958;10.970;2023-02-19T19:34:38;101894.84;;;4.41;90.28
39823;BME280;25499;53.958;10.970;2023-02-19T19:37:03;101892.56;;;4.48;90.26
39823;BME280;25499;53.958;10.970;2023-02-19T19:39:29;101883.25;;;4.31;90.35
39823;BME280;25499;53.958;10.970;2023-02-19T19:41:54;101890.44;;;4.38;90.93
39823;BME280;25499;53.958;10.970;2023-02-19T19:44:21;101897.25;;;4.36;91.02
39823;BME280;25499;53.958;10.970;2023-02-19T19:46:47;101906.66;;;4.36;91.24
39823;BME280;25499;53.958;10.970;2023-02-19T19:49:17;101917.22;;;4.42;91.24
39823;BME280;25499;53.958;10.970;2023-02-19T19:51:43;101921.38;;;4.38;91.32
39823;BME280;25499;53.958;10.970;2023-02-19T19:54:08;101911.94;;;4.39;91.58
39823;BME280;25499;53.958;10.970;2023-02-19T19:56:45;101916.03;;;4.34;91.96
39823;BME280;25499;53.958;10.970;2023-02-19T19:59:12;101917.34;;;4.45;91.90
39823;BME280;25499;53.958;10.970;2023-02-19T20:01:53;101919.13;;;4.25;92.44
39823;BME280;25499;53.958;10.970;2023-02-19T20:04:20;101922.63;;;4.27;93.05
39823;BME280;25499;53.958;10.970;2023-02-19T20:06:47;101923.41;;;4.24;93.25
39823;BME280;25499;53.958;10.970;2023-02-19T20:09:13;101919.34;;;4.31;93.41
39823;BME280;25499;53.958;10.970;2023-02-19T20:11:46;101920.91;;;4.27;93.33
39823;BME280;25499;53.958;10.970;2023-02-19T20:14:13;101926.22;;;4.30;93.73
39823;BME280;25499;53.958;10.970;2023-02-19T20:16:39;101919.34;;;4.31;93.92
39823;BME280;25499;53.958;10.970;2023-02-19T20:19:05;101924.13;;;4.22;94.14
39823;BME280;25499;53.958;10.970;2023-02-19T20:21:31;101922.91;;;4.33;94.35
39823;BME280;25499;53.958;10.970;2023-02-19T20:23:56;101916.97;;;4.36;94.48
39823;BME280;25499;53.958;10.970;2023-02-19T20:26:23;101903.72;;;4.26;94.46
39823;BME280;25499;53.958;10.970;2023-02-19T20:28:50;101902.56;;;4.20;94.60
39823;BME280;25499;53.958;10.970;2023-02-19T20:31:15;101899.16;;;4.21;94.92
39823;BME280;25499;53.958;10.970;2023-02-19T20:33:41;101905.38;;;4.26;94.67
39823;BME280;25499;53.958;10.970;2023-02-19T20:36:07;101900.00;;;4.20;94.79
39823;BME280;25499;53.958;10.970;2023-02-19T20:38:32;101891.19;;;4.15;94.78
39823;BME280;25499;53.958;10.970;2023-02-19T20:40:58;101881.81;;;4.17;94.99
39823;BME280;25499;53.958;10.970;2023-02-19T20:43:23;101882.25;;;4.06;95.15
39823;BME280;25499;53.958;10.970;2023-02-19T20:45:49;101885.09;;;4.13;95.28
39823;BME280;25499;53.958;10.970;2023-02-19T20:48:15;101881.50;;;4.09;95.68
39823;BME280;25499;53.958;10.970;2023-02-19T20:50:41;101878.63;;;4.01;95.76
39823;BME280;25499;53.958;10.970;2023-02-19T20:53:06;101867.75;;;4.08;95.91
39823;BME280;25499;53.958;10.970;2023-02-19T20:55:32;101867.53;;;4.04;95.90
39823;BME280;25499;53.958;10.970;2023-02-19T20:57:57;101862.38;;;4.04;96.20
39823;BME280;25499;53.958;10.970;2023-02-19T21:00:23;101868.25;;;4.00;96.32
39823;BME280;25499;53.958;10.970;2023-02-19T21:02:48;101864.03;;;4.02;96.45
39823;BME280;25499;53.958;10.970;2023-02-19T21:05:16;101860.00;;;3.87;96.76
39823;BME280;25499;53.958;10.970;2023-02-19T21:07:41;101867.22;;;3.96;97.03
39823;BME280;25499;53.958;10.970;2023-02-19T21:10:07;101867.09;;;3.93;97.06
39823;BME280;25499;53.958;10.970;2023-02-19T21:12:33;101874.91;;;3.95;97.19
39823;BME280;25499;53.958;10.970;2023-02-19T21:14:58;101872.25;;;3.93;97.37
39823;BME280;25499;53.958;10.970;2023-02-19T21:17:24;101877.19;;;3.88;97.64
39823;BME280;25499;53.958;10.970;2023-02-19T21:19:50;101886.00;;;3.93;97.82
39823;BME280;25499;53.958;10.970;2023-02-19T21:22:15;101884.41;;;3.96;98.35
39823;BME280;25499;53.958;10.970;2023-02-19T21:24:40;101889.84;;;4.03;98.46
39823;BME280;25499;53.958;10.970;2023-02-19T21:27:06;101883.56;;;3.97;98.66
39823;BME280;25499;53.958;10.970;2023-02-19T21:29:31;101880.75;;;4.11;99.03
39823;BME280;25499;53.958;10.970;2023-02-19T21:31:57;101878.50;;;4.19;99.15
39823;BME280;25499;53.958;10.970;2023-02-19T21:34:25;101881.03;;;4.18;99.50
39823;BME280;25499;53.958;10.970;2023-02-19T21:36:52;101872.53;;;4.20;99.38
